Terminal Aerodrome Forecast
Issued by NWS

Home | Current Version | Previous Version | Graphics & Text | Print | Product List | Glossary On
Versions: 1 2 3 4 5 6 7 8 9 10 11 12 13 14 15 16 17 18 19 20 21
000
FTUS43 KICT 140724 AAA
TAFSLN
TAF AMD
KSLN 140724Z 1407/1506 03008KT P6SM VCSH SCT015 BKN120
     FM140900 06004KT 5SM -SHRA BR VCTS SCT020 BKN040CB
     FM141600 17011KT P6SM VCSH BKN045
     FM142300 31028G37KT P6SM -SHRA VCTS BKN090CB=

USA.gov is the U.S. government's official web portal to all federal, state and local government web resources and services.